Terminal Aerodrome Forecast
Issued by NWS Wilmington, NC

Home | Current Version | Previous Version | Text Only | Print | Product List | Glossary On
Versions: 1 2 3 4 5 6 7 8 9 10 11 12 13
809
FTUS42 KILM 250522
TAFFLO
TAF
KFLO 250522Z 2506/2606 22005KT P6SM SKC
     FM250900 22002KT 5SM BR SKC
     FM251400 20008KT P6SM FEW040=

USA.gov is the U.S. government's official web portal to all federal, state and local government web resources and services.